createdAt,value
2018-03-22T00:01:10.909Z,-3.14
2018-03-22T00:03:36.963Z,-3.18
2018-03-22T00:06:02.991Z,-3.16
2018-03-22T00:08:29.013Z,-3.11
2018-03-22T00:10:55.052Z,-3.14
2018-03-22T00:13:21.046Z,-3.24
2018-03-22T00:15:47.083Z,-3.51
2018-03-22T00:18:13.109Z,-3.30
2018-03-22T00:20:39.158Z,-3.19
2018-03-22T00:23:05.275Z,-3.16
2018-03-22T00:25:31.277Z,-3.24
2018-03-22T00:27:57.854Z,-3.40
2018-03-22T00:30:23.885Z,-3.44
2018-03-22T00:32:49.918Z,-3.44
2018-03-22T00:35:15.973Z,-3.42
2018-03-22T00:37:42.025Z,-3.48
2018-03-22T00:40:08.041Z,-3.43
2018-03-22T00:42:34.157Z,-3.40
2018-03-22T00:45:00.202Z,-3.25
2018-03-22T00:47:26.202Z,-3.49
2018-03-22T00:49:52.214Z,-3.42
2018-03-22T00:52:18.273Z,-3.40
2018-03-22T00:54:44.302Z,-3.34
2018-03-22T00:57:10.305Z,-3.40
2018-03-22T00:59:36.336Z,-3.23
2018-03-22T01:02:02.330Z,-3.30
2018-03-22T01:04:28.350Z,-3.23
2018-03-22T01:06:54.300Z,-3.23
2018-03-22T01:09:20.351Z,-3.37
2018-03-22T01:11:46.308Z,-3.40
2018-03-22T01:14:12.311Z,-3.36
2018-03-22T01:16:38.331Z,-3.40
2018-03-22T01:19:04.309Z,-3.66
2018-03-22T01:21:30.321Z,-3.84
2018-03-22T01:23:56.320Z,-3.93
2018-03-22T01:26:22.433Z,-3.91
2018-03-22T01:28:48.448Z,-3.93
2018-03-22T01:31:14.471Z,-3.88
2018-03-22T01:33:40.479Z,-3.94
2018-03-22T01:36:06.526Z,-3.95
2018-03-22T01:38:32.562Z,-4.07
2018-03-22T01:40:58.526Z,-3.98
2018-03-22T01:43:24.590Z,-4.18
2018-03-22T01:45:50.587Z,-4.10
2018-03-22T01:48:16.677Z,-4.23
2018-03-22T01:50:42.685Z,-4.10
2018-03-22T01:53:12.741Z,-4.06
2018-03-22T01:55:38.735Z,-4.13
2018-03-22T01:58:04.794Z,-4.14
2018-03-22T02:00:30.797Z,-4.21
2018-03-22T02:02:56.810Z,-4.28
2018-03-22T02:05:22.836Z,-4.26
2018-03-22T02:07:48.862Z,-4.26
2018-03-22T02:10:14.870Z,-4.24
2018-03-22T02:12:40.886Z,-4.24
2018-03-22T02:15:06.955Z,-4.28
2018-03-22T02:17:32.981Z,-4.50
2018-03-22T02:19:59.034Z,-4.54
2018-03-22T02:22:25.082Z,-4.50
2018-03-22T02:24:51.094Z,-4.60
2018-03-22T02:27:17.149Z,-4.59
2018-03-22T02:29:43.107Z,-4.59
2018-03-22T02:32:09.116Z,-4.53
2018-03-22T02:34:35.118Z,-4.42
2018-03-22T02:37:01.181Z,-4.37
2018-03-22T02:39:27.158Z,-4.25
2018-03-22T02:41:53.247Z,-4.37
2018-03-22T02:44:19.314Z,-4.35
2018-03-22T02:46:45.354Z,-4.22
2018-03-22T02:49:11.362Z,-4.32
2018-03-22T02:51:37.413Z,-4.31
2018-03-22T02:54:03.378Z,-4.26
2018-03-22T02:56:29.348Z,-4.23
2018-03-22T02:58:55.362Z,-4.47
2018-03-22T03:01:21.486Z,-4.62
2018-03-22T03:03:47.713Z,-4.69
2018-03-22T03:06:13.779Z,-4.80
2018-03-22T03:08:39.786Z,-4.69
2018-03-22T03:11:05.803Z,-4.92
2018-03-22T03:13:31.790Z,-4.73
2018-03-22T03:15:57.808Z,-4.88
2018-03-22T03:18:23.802Z,-4.70
2018-03-22T03:20:49.839Z,-4.61
2018-03-22T03:23:15.844Z,-4.53
2018-03-22T03:25:42.226Z,-4.47
2018-03-22T03:28:08.242Z,-4.65
2018-03-22T03:30:34.272Z,-4.53
2018-03-22T03:33:00.298Z,-4.71
2018-03-22T03:35:26.261Z,-4.89
2018-03-22T03:37:52.315Z,-4.87
2018-03-22T03:40:18.279Z,-4.72
2018-03-22T03:42:44.336Z,-4.63
2018-03-22T03:45:10.349Z,-4.58
2018-03-22T03:47:36.353Z,-4.58
2018-03-22T03:50:02.672Z,-4.59
2018-03-22T03:52:28.677Z,-4.49
2018-03-22T03:54:54.816Z,-4.50
2018-03-22T03:57:20.834Z,-4.71
2018-03-22T03:59:47.408Z,-4.74
2018-03-22T04:02:13.502Z,-4.95
2018-03-22T04:04:39.910Z,-4.85
2018-03-22T04:07:05.977Z,-4.78
2018-03-22T04:09:32.026Z,-4.65
2018-03-22T04:11:58.093Z,-4.63
2018-03-22T04:14:24.141Z,-4.56
2018-03-22T04:16:50.149Z,-4.53
2018-03-22T04:19:16.153Z,-4.59
2018-03-22T04:21:42.169Z,-4.53
2018-03-22T04:24:08.147Z,-4.52
2018-03-22T04:26:34.189Z,-4.45
2018-03-22T04:29:00.195Z,-4.49
2018-03-22T04:31:26.204Z,-4.53
2018-03-22T04:33:52.208Z,-4.54
2018-03-22T04:36:18.210Z,-4.50
2018-03-22T04:38:44.244Z,-4.79
2018-03-22T04:41:10.333Z,-4.87
2018-03-22T04:43:36.352Z,-4.96
2018-03-22T04:46:02.454Z,-4.78
2018-03-22T04:48:28.507Z,-4.62
2018-03-22T04:50:54.530Z,-4.53
2018-03-22T04:53:20.544Z,-4.53
2018-03-22T04:55:46.617Z,-4.51
2018-03-22T04:58:12.677Z,-4.90
2018-03-22T05:00:38.855Z,-4.52
2018-03-22T05:03:04.873Z,-4.45
2018-03-22T05:05:30.928Z,-4.42
2018-03-22T05:07:56.929Z,-4.42
2018-03-22T05:10:22.937Z,-4.35
2018-03-22T05:12:48.941Z,-4.40
2018-03-22T05:15:15.065Z,-4.35
2018-03-22T05:17:41.085Z,-4.36
2018-03-22T05:20:07.077Z,-4.25
2018-03-22T05:22:33.090Z,-4.14
2018-03-22T05:24:59.118Z,-4.19
2018-03-22T05:27:25.157Z,-4.12
2018-03-22T05:29:51.226Z,-4.07
2018-03-22T05:32:17.334Z,-4.04
2018-03-22T05:34:43.364Z,-4.07
2018-03-22T05:37:09.485Z,-4.01
2018-03-22T05:39:35.519Z,-4.03
2018-03-22T05:42:01.522Z,-3.98
2018-03-22T05:44:27.597Z,-3.88
2018-03-22T05:46:53.595Z,-3.90
2018-03-22T05:49:19.616Z,-3.83
2018-03-22T05:51:45.658Z,-3.85
2018-03-22T05:54:12.559Z,-3.80
2018-03-22T05:56:38.566Z,-3.75
2018-03-22T05:59:04.590Z,-3.70
2018-03-22T06:01:30.682Z,-3.61
2018-03-22T06:03:56.836Z,-3.74
2018-03-22T06:06:22.790Z,-3.67
2018-03-22T06:08:48.867Z,-3.67
2018-03-22T06:11:14.929Z,-3.51
2018-03-22T06:13:40.889Z,-3.63
2018-03-22T06:16:07.084Z,-3.61
2018-03-22T06:18:33.074Z,-3.60
2018-03-22T06:20:59.107Z,-3.44
2018-03-22T06:23:25.185Z,-3.50
2018-03-22T06:25:51.191Z,-3.28
2018-03-22T06:28:17.200Z,-3.10
2018-03-22T06:30:43.325Z,-3.08
2018-03-22T06:33:09.354Z,-2.95
2018-03-22T06:35:35.397Z,-2.94
2018-03-22T06:38:01.449Z,-2.90
2018-03-22T06:40:27.469Z,-2.85
2018-03-22T06:42:53.552Z,-2.82
2018-03-22T06:45:19.560Z,-2.82
2018-03-22T06:47:45.607Z,-2.88
2018-03-22T06:50:11.651Z,-2.68
2018-03-22T06:52:37.670Z,-2.45
2018-03-22T06:55:04.030Z,-2.37
2018-03-22T06:57:30.025Z,-2.40
2018-03-22T06:59:56.034Z,-2.70
2018-03-22T07:02:22.039Z,-2.50
2018-03-22T07:04:48.175Z,-2.44
2018-03-22T07:07:14.143Z,-2.24
2018-03-22T07:09:40.142Z,-2.22
2018-03-22T07:12:06.193Z,-2.30
2018-03-22T07:14:32.205Z,-2.19
2018-03-22T07:16:58.234Z,-2.04
2018-03-22T07:19:24.332Z,-1.84
2018-03-22T07:21:50.366Z,-1.76
2018-03-22T07:24:16.394Z,-1.70
2018-03-22T07:26:42.392Z,-1.68
2018-03-22T07:29:08.479Z,-1.64
2018-03-22T07:31:34.543Z,-1.64
2018-03-22T07:34:00.690Z,-1.66
2018-03-22T07:36:26.697Z,-1.54
2018-03-22T07:38:52.659Z,-1.49
2018-03-22T07:41:18.729Z,-1.28
2018-03-22T07:43:44.773Z,-1.06
2018-03-22T07:46:10.797Z,-0.82
2018-03-22T07:48:36.773Z,-0.66
2018-03-22T07:51:02.842Z,-0.51
2018-03-22T07:53:28.902Z,-0.45
2018-03-22T07:55:55.050Z,-0.36
2018-03-22T07:58:21.249Z,-0.25
2018-03-22T08:00:47.253Z,-0.12
2018-03-22T08:03:15.129Z,0.03
2018-03-22T08:05:41.137Z,0.18
2018-03-22T08:08:07.192Z,0.24
2018-03-22T08:10:33.225Z,0.31
2018-03-22T08:12:59.289Z,0.41
2018-03-22T08:15:25.601Z,0.45
2018-03-22T08:17:51.633Z,0.63
2018-03-22T08:20:17.649Z,0.78
2018-03-22T08:22:43.642Z,0.99
2018-03-22T08:25:09.692Z,0.91
2018-03-22T08:27:35.699Z,0.86
2018-03-22T08:30:01.772Z,0.85
2018-03-22T08:32:27.817Z,0.83
2018-03-22T08:34:53.853Z,0.73
2018-03-22T08:37:19.826Z,0.83
2018-03-22T08:39:45.841Z,0.92
2018-03-22T08:42:11.886Z,1.02
2018-03-22T08:44:37.894Z,1.02
2018-03-22T08:47:03.958Z,1.02
2018-03-22T08:49:29.965Z,1.03
2018-03-22T08:51:56.024Z,1.10
2018-03-22T08:54:22.025Z,1.19
2018-03-22T08:56:48.073Z,1.27
2018-03-22T08:59:14.057Z,1.26
2018-03-22T09:01:40.074Z,1.37
2018-03-22T09:04:06.167Z,1.45
2018-03-22T09:06:32.210Z,1.55
2018-03-22T09:08:58.253Z,1.60
2018-03-22T09:11:24.326Z,1.55
2018-03-22T09:13:50.389Z,1.64
2018-03-22T09:16:16.369Z,1.69
2018-03-22T09:18:42.446Z,1.78
2018-03-22T09:21:08.476Z,1.95
2018-03-22T09:23:34.485Z,2.15
2018-03-22T09:26:00.468Z,2.23
2018-03-22T09:28:26.497Z,2.22
2018-03-22T09:30:52.525Z,2.12
2018-03-22T09:33:18.533Z,2.03
2018-03-22T09:35:44.541Z,2.07
2018-03-22T09:38:10.567Z,2.16
2018-03-22T09:40:36.553Z,2.21
2018-03-22T09:43:02.595Z,2.34
2018-03-22T09:45:28.633Z,2.40
2018-03-22T09:47:54.697Z,2.49
2018-03-22T09:50:20.710Z,2.63
2018-03-22T09:52:46.713Z,2.70
2018-03-22T09:55:12.766Z,2.73
2018-03-22T09:57:38.814Z,2.67
2018-03-22T10:00:04.869Z,2.76
2018-03-22T10:02:30.914Z,3.01
2018-03-22T10:04:56.938Z,3.22
2018-03-22T10:07:22.934Z,3.34
2018-03-22T10:09:48.948Z,3.23
2018-03-22T10:12:14.968Z,3.00
2018-03-22T10:14:40.981Z,2.86
2018-03-22T10:17:06.952Z,2.88
2018-03-22T10:19:32.953Z,2.99
2018-03-22T10:21:59.075Z,3.01
2018-03-22T10:24:25.108Z,3.04
2018-03-22T10:26:51.091Z,3.10
2018-03-22T10:29:17.443Z,3.03
2018-03-22T10:31:43.451Z,3.06
2018-03-22T10:34:09.530Z,3.11
2018-03-22T10:36:35.561Z,3.13
2018-03-22T10:39:01.615Z,3.04
2018-03-22T10:41:27.617Z,2.92
2018-03-22T10:43:53.705Z,2.91
2018-03-22T10:46:19.709Z,2.84
2018-03-22T10:48:45.690Z,2.72
2018-03-22T10:51:11.709Z,2.79
2018-03-22T10:53:37.749Z,2.90
2018-03-22T10:56:03.784Z,2.92
2018-03-22T10:58:30.180Z,2.90
2018-03-22T11:01:02.282Z,3.02
2018-03-22T11:03:28.482Z,3.00
2018-03-22T11:05:54.505Z,3.08
2018-03-22T11:08:20.545Z,3.06
2018-03-22T11:10:46.630Z,3.00
2018-03-22T11:13:12.674Z,2.88
2018-03-22T11:15:38.618Z,2.92
2018-03-22T11:18:04.642Z,2.89
2018-03-22T11:20:30.640Z,2.90
2018-03-22T11:22:56.651Z,2.98
2018-03-22T11:25:22.652Z,2.94
2018-03-22T11:27:48.691Z,2.99
2018-03-22T11:30:14.736Z,3.06
2018-03-22T11:32:40.702Z,3.07
2018-03-22T11:35:06.722Z,3.12
2018-03-22T11:37:32.817Z,3.27
2018-03-22T11:39:58.853Z,3.17
2018-03-22T11:42:24.833Z,3.23
2018-03-22T11:44:50.916Z,3.11
2018-03-22T11:47:16.970Z,3.07
2018-03-22T11:49:42.997Z,3.15
2018-03-22T11:52:09.020Z,3.25
2018-03-22T11:54:35.028Z,3.23
2018-03-22T11:57:01.060Z,3.17
2018-03-22T11:59:27.086Z,3.13
2018-03-22T12:01:53.203Z,3.09
2018-03-22T12:04:19.218Z,3.12
2018-03-22T12:06:45.208Z,3.19
2018-03-22T12:09:11.330Z,3.32
2018-03-22T12:11:37.334Z,3.44
2018-03-22T12:14:03.340Z,3.28
2018-03-22T12:16:29.362Z,3.30
2018-03-22T12:18:55.365Z,3.39
2018-03-22T12:21:21.413Z,3.35
2018-03-22T12:23:47.417Z,3.49
2018-03-22T12:26:13.441Z,3.52
2018-03-22T12:28:39.464Z,3.47
2018-03-22T12:31:05.530Z,3.55
2018-03-22T12:33:31.509Z,3.62
2018-03-22T12:35:57.539Z,3.50
2018-03-22T12:38:23.603Z,3.54
2018-03-22T12:40:49.614Z,3.56
2018-03-22T12:43:15.642Z,3.65
2018-03-22T12:45:41.676Z,3.53
2018-03-22T12:48:07.699Z,3.56
2018-03-22T12:50:33.725Z,3.60
2018-03-22T12:52:59.827Z,3.54
2018-03-22T12:55:26.279Z,3.63
2018-03-22T12:57:52.285Z,3.55
2018-03-22T13:00:18.314Z,3.53
2018-03-22T13:02:44.387Z,3.49
2018-03-22T13:05:10.401Z,3.43
2018-03-22T13:07:36.406Z,3.33
2018-03-22T13:10:02.414Z,3.31
2018-03-22T13:12:28.470Z,3.51
2018-03-22T13:14:54.499Z,3.66
2018-03-22T13:17:20.536Z,3.58
2018-03-22T13:19:46.553Z,3.62
2018-03-22T13:22:12.572Z,3.72
2018-03-22T13:24:38.578Z,3.51
2018-03-22T13:27:04.572Z,3.43
2018-03-22T13:29:30.598Z,3.13
2018-03-22T13:31:56.619Z,2.74
2018-03-22T13:34:22.690Z,2.54
2018-03-22T13:36:48.746Z,2.39
2018-03-22T13:39:14.785Z,2.34
2018-03-22T13:41:40.770Z,2.35
2018-03-22T13:44:06.804Z,2.51
2018-03-22T13:46:32.841Z,2.62
2018-03-22T13:48:58.853Z,2.69
2018-03-22T13:51:24.862Z,2.62
2018-03-22T13:53:50.945Z,2.66
2018-03-22T13:56:17.011Z,2.68
2018-03-22T13:58:43.026Z,2.72
2018-03-22T14:01:09.055Z,2.81
2018-03-22T14:03:35.061Z,2.69
2018-03-22T14:06:01.106Z,2.66
2018-03-22T14:08:27.590Z,2.71
2018-03-22T14:10:53.661Z,2.58
2018-03-22T14:13:19.681Z,2.65
2018-03-22T14:15:45.655Z,2.67
2018-03-22T14:18:11.662Z,2.76
2018-03-22T14:20:37.737Z,2.83
2018-03-22T14:23:03.783Z,2.92
2018-03-22T14:25:30.422Z,2.98
2018-03-22T14:27:56.450Z,3.05
2018-03-22T14:30:22.510Z,3.08
2018-03-22T14:32:48.516Z,3.10
2018-03-22T14:35:14.459Z,3.17
2018-03-22T14:37:40.514Z,3.18
2018-03-22T14:40:06.548Z,3.19
2018-03-22T14:42:32.553Z,3.22
2018-03-22T14:44:58.652Z,3.22
2018-03-22T14:47:24.634Z,3.22
2018-03-22T14:49:50.670Z,3.29
2018-03-22T14:52:16.760Z,3.32
2018-03-22T14:54:42.794Z,3.30
2018-03-22T14:57:08.822Z,3.38
2018-03-22T14:59:34.877Z,3.34
2018-03-22T15:02:00.896Z,3.37
2018-03-22T15:04:26.918Z,3.36
2018-03-22T15:06:52.990Z,3.34
2018-03-22T15:09:19.017Z,3.35
2018-03-22T15:11:45.048Z,3.24
2018-03-22T15:14:11.095Z,3.26
2018-03-22T15:16:37.133Z,3.25
2018-03-22T15:19:03.183Z,3.14
2018-03-22T15:21:29.184Z,3.14
2018-03-22T15:23:55.290Z,3.11
2018-03-22T15:26:21.319Z,3.13
2018-03-22T15:28:47.373Z,3.12
2018-03-22T15:31:13.459Z,3.07
2018-03-22T15:33:39.518Z,2.93
2018-03-22T15:36:05.538Z,2.52
2018-03-22T15:38:31.628Z,2.36
2018-03-22T15:40:57.707Z,2.26
2018-03-22T15:43:23.806Z,2.29
2018-03-22T15:45:49.911Z,2.26
2018-03-22T15:48:15.925Z,2.11
2018-03-22T15:50:42.048Z,1.83
2018-03-22T15:53:08.124Z,1.70
2018-03-22T15:55:34.218Z,1.66
2018-03-22T15:58:00.247Z,1.62
2018-03-22T16:00:26.717Z,1.63
2018-03-22T16:02:52.771Z,1.63
2018-03-22T16:05:18.814Z,1.60
2018-03-22T16:07:44.825Z,1.57
2018-03-22T16:10:10.929Z,1.56
2018-03-22T16:12:37.039Z,1.52
2018-03-22T16:15:03.349Z,1.52
2018-03-22T16:17:29.462Z,1.53
2018-03-22T16:19:55.561Z,1.54
2018-03-22T16:22:21.634Z,1.58
2018-03-22T16:24:47.670Z,1.61
2018-03-22T16:27:13.697Z,1.52
2018-03-22T16:29:39.801Z,1.42
2018-03-22T16:32:05.867Z,1.41
2018-03-22T16:34:31.906Z,1.38
2018-03-22T16:36:57.905Z,1.35
2018-03-22T16:39:23.961Z,1.36
2018-03-22T16:41:49.969Z,1.36
2018-03-22T16:44:15.993Z,1.39
2018-03-22T16:46:41.975Z,1.37
2018-03-22T16:49:08.103Z,1.38
2018-03-22T16:51:34.136Z,1.41
2018-03-22T16:54:00.151Z,1.40
2018-03-22T16:56:26.154Z,1.37
2018-03-22T16:58:52.112Z,1.35
2018-03-22T17:01:18.127Z,1.27
2018-03-22T17:03:44.187Z,1.28
2018-03-22T17:06:10.254Z,1.28
2018-03-22T17:08:36.292Z,1.25
2018-03-22T17:11:02.329Z,1.28
2018-03-22T17:13:28.310Z,1.26
2018-03-22T17:15:54.364Z,1.23
2018-03-22T17:18:20.453Z,1.22
2018-03-22T17:20:46.529Z,1.21
2018-03-22T17:23:12.549Z,1.22
2018-03-22T17:25:38.622Z,1.21
2018-03-22T17:28:04.726Z,1.25
2018-03-22T17:30:30.806Z,1.25
2018-03-22T17:32:56.758Z,1.27
2018-03-22T17:35:22.873Z,1.26
2018-03-22T17:37:48.890Z,1.25
2018-03-22T17:40:14.912Z,1.27
2018-03-22T17:42:40.982Z,1.29
2018-03-22T17:45:07.037Z,1.33
2018-03-22T17:47:33.042Z,1.36
2018-03-22T17:49:59.131Z,1.36
2018-03-22T17:52:25.201Z,1.37
2018-03-22T17:54:51.244Z,1.35
2018-03-22T17:57:17.294Z,1.34
2018-03-22T17:59:43.344Z,1.35
2018-03-22T18:02:09.405Z,1.38
2018-03-22T18:04:35.386Z,1.37
2018-03-22T18:07:01.422Z,1.33
2018-03-22T18:09:27.849Z,1.33
2018-03-22T18:11:53.910Z,1.28
2018-03-22T18:14:19.934Z,1.33
2018-03-22T18:16:45.934Z,1.31
2018-03-22T18:19:12.004Z,1.33
2018-03-22T18:21:38.075Z,1.36
2018-03-22T18:24:04.092Z,1.39
2018-03-22T18:26:30.101Z,1.39
2018-03-22T18:28:56.101Z,1.34
2018-03-22T18:31:22.073Z,1.35
2018-03-22T18:33:48.070Z,1.37
2018-03-22T18:36:14.152Z,1.35
2018-03-22T18:38:40.141Z,1.30
2018-03-22T18:41:06.181Z,1.32
2018-03-22T18:43:32.208Z,1.30
2018-03-22T18:45:58.290Z,1.29
2018-03-22T18:48:24.358Z,1.34
2018-03-22T18:50:50.338Z,1.38
2018-03-22T18:53:16.419Z,1.45
2018-03-22T18:55:42.466Z,1.42
2018-03-22T18:58:08.489Z,1.48
2018-03-22T19:00:34.541Z,1.50
2018-03-22T19:03:00.566Z,1.43
2018-03-22T19:05:26.666Z,1.45
2018-03-22T19:07:52.694Z,1.44
2018-03-22T19:10:18.766Z,1.44
2018-03-22T19:12:45.206Z,1.40
2018-03-22T19:15:11.167Z,1.39
2018-03-22T19:17:37.188Z,1.45
2018-03-22T19:20:03.326Z,1.45
2018-03-22T19:22:29.374Z,1.43
2018-03-22T19:24:55.425Z,1.40
2018-03-22T19:27:21.477Z,1.42
2018-03-22T19:29:47.485Z,1.41
2018-03-22T19:32:13.497Z,1.43
2018-03-22T19:34:39.677Z,1.46
2018-03-22T19:37:05.721Z,1.47
2018-03-22T19:39:31.898Z,1.51
2018-03-22T19:41:57.995Z,1.45
2018-03-22T19:44:24.125Z,1.44
2018-03-22T19:46:50.124Z,1.41
2018-03-22T19:49:16.094Z,1.39
2018-03-22T19:51:42.106Z,1.36
2018-03-22T19:54:08.191Z,1.37
2018-03-22T19:56:34.193Z,1.37
2018-03-22T19:59:00.356Z,1.40
2018-03-22T20:01:26.446Z,1.37
2018-03-22T20:03:52.474Z,1.37
2018-03-22T20:06:18.500Z,1.37
2018-03-22T20:08:44.533Z,1.38
2018-03-22T20:11:10.635Z,1.35
2018-03-22T20:13:36.622Z,1.33
2018-03-22T20:16:02.723Z,1.32
2018-03-22T20:18:28.745Z,1.31
2018-03-22T20:20:54.813Z,1.33
2018-03-22T20:23:20.921Z,1.28
2018-03-22T20:25:47.030Z,1.32
2018-03-22T20:28:13.044Z,1.32
2018-03-22T20:30:39.079Z,1.34
2018-03-22T20:33:05.158Z,1.32
2018-03-22T20:35:31.255Z,1.32
2018-03-22T20:37:57.432Z,1.30
2018-03-22T20:40:23.441Z,1.29
2018-03-22T20:42:49.443Z,1.31
2018-03-22T20:45:15.459Z,1.30
2018-03-22T20:47:41.513Z,1.31
2018-03-22T20:50:07.559Z,1.33
2018-03-22T20:52:33.601Z,1.34
2018-03-22T20:54:59.647Z,1.33
2018-03-22T20:57:25.685Z,1.43
2018-03-22T20:59:51.754Z,1.36
2018-03-22T21:02:17.810Z,1.38
2018-03-22T21:04:43.778Z,1.32
2018-03-22T21:07:09.846Z,1.33
2018-03-22T21:09:35.842Z,1.30
2018-03-22T21:12:01.895Z,1.29
2018-03-22T21:14:27.931Z,1.18
2018-03-22T21:16:54.014Z,1.26
2018-03-22T21:19:20.127Z,1.28
2018-03-22T21:21:46.302Z,1.28
2018-03-22T21:24:12.405Z,1.27
2018-03-22T21:26:38.477Z,1.36
2018-03-22T21:29:04.528Z,1.32
2018-03-22T21:31:30.863Z,1.38
2018-03-22T21:33:57.117Z,1.39
2018-03-22T21:36:23.190Z,1.40
2018-03-22T21:38:49.269Z,1.41
2018-03-22T21:41:37.523Z,1.46
2018-03-22T21:44:14.763Z,1.37
2018-03-22T21:46:40.784Z,1.40
2018-03-22T21:49:06.879Z,1.42
2018-03-22T21:51:32.958Z,1.35
2018-03-22T21:53:59.038Z,1.34
2018-03-22T21:56:25.094Z,1.35
2018-03-22T21:58:51.151Z,1.36
2018-03-22T22:01:17.154Z,1.37
2018-03-22T22:03:43.195Z,1.33
2018-03-22T22:06:09.195Z,1.35
2018-03-22T22:08:35.162Z,1.30
2018-03-22T22:11:01.162Z,1.29
2018-03-22T22:13:27.149Z,1.23
2018-03-22T22:15:53.206Z,1.23
2018-03-22T22:18:19.222Z,1.26
2018-03-22T22:20:45.223Z,1.27
2018-03-22T22:23:11.301Z,1.22
2018-03-22T22:25:37.339Z,1.26
2018-03-22T22:28:03.390Z,1.29
2018-03-22T22:30:29.388Z,1.31
2018-03-22T22:32:55.488Z,1.31
2018-03-22T22:35:21.545Z,1.31
2018-03-22T22:37:47.511Z,1.28
2018-03-22T22:40:13.572Z,1.30
2018-03-22T22:42:39.655Z,1.30
2018-03-22T22:45:05.659Z,1.30
2018-03-22T22:47:31.634Z,1.28
2018-03-22T22:49:57.716Z,1.26
2018-03-22T22:52:23.735Z,1.14
2018-03-22T22:54:49.761Z,1.10
2018-03-22T22:57:15.826Z,1.06
2018-03-22T22:59:41.869Z,1.26
2018-03-22T23:02:07.906Z,1.31
2018-03-22T23:04:34.018Z,1.37
2018-03-22T23:07:00.079Z,1.36
2018-03-22T23:09:26.080Z,1.43
2018-03-22T23:11:52.190Z,1.37
2018-03-22T23:14:18.242Z,1.28
2018-03-22T23:16:44.317Z,1.30
2018-03-22T23:19:10.345Z,1.38
2018-03-22T23:21:36.384Z,1.38
2018-03-22T23:24:02.390Z,1.33
2018-03-22T23:26:28.462Z,1.31
2018-03-22T23:28:54.477Z,1.32
2018-03-22T23:31:20.521Z,1.32
2018-03-22T23:33:46.593Z,1.38
2018-03-22T23:36:12.647Z,1.33
2018-03-22T23:38:38.657Z,1.35
2018-03-22T23:41:04.638Z,1.43
2018-03-22T23:43:30.694Z,1.32
2018-03-22T23:45:56.699Z,1.18
2018-03-22T23:48:22.739Z,1.14
2018-03-22T23:50:48.832Z,1.12
2018-03-22T23:53:14.862Z,0.98
2018-03-22T23:55:40.948Z,0.94
2018-03-22T23:58:07.075Z,0.96
